Five — 2ICN3 — position and weather

sailwx.info

Track history (hours):
 
Tides and Currents Weather Stations Pressure Air Temp Water Temp Dewpoint Dewpoint Depression Visibility Wind Speed Wind Dir Waves Ship Positions

Five

Last reported at 2018-Feb-17 15:56 UTC. Time now 2018-Feb-20 23:55 UTC.
Position N 45°35' W 001°01'.

Length 15 m.

Type: Pleasure craft. MMSI: 235108572.

Date/timePositionNaut miles runAvg speedWind from/ knotsBaromVisibWave heightAir tempDewpointWater temp
2018-Feb-17 15:56N 45°35' W 001°01'1 3.1
2018-Feb-17 15:30N 45°34' W 001°01'1 2.2
2018-Feb-17 15:00N 45°33' W 001°02'2 3.4
2018-Feb-17 14:30N 45°34' W 001°01'1 2.3
2018-Feb-17 14:00N 45°35' W 001°02'2 4.1
2018-Feb-17 13:30N 45°37' W 001°03'1 2.4
2018-Feb-17 12:56N 45°35' W 001°03'2 2.3
2018-Feb-17 12:10N 45°33' W 001°04'0 0.0
2018-Feb-15 16:08N 45°33' W 001°04'0 0.0
2018-Feb-15 15:56N 45°33' W 001°04'0 0.0
2018-Feb-15 15:26N 45°33' W 001°04'1 1.4
2018-Feb-15 14:55N 45°33' W 001°03'1 2.9
2018-Feb-15 14:28N 45°35' W 001°03'1 1.8
2018-Feb-15 14:00N 45°35' W 001°02'2 3.4
2018-Feb-15 13:28N 45°33' W 000°60'2 4.2
2018-Feb-15 12:59N 45°35' W 001°02'2 4.4
2018-Feb-15 12:30N 45°34' W 000°60'1 3.0
2018-Feb-15 12:00N 45°34' W 001°01'1 2.0
2018-Feb-15 11:29N 45°33' W 001°01'1 2.5
2018-Feb-15 11:00N 45°34' W 001°03'1 0.8
2018-Feb-15 10:06N 45°33' W 001°04'0 0.0
2018-Feb-15 09:48N 45°33' W 001°04'0 0.0
2018-Feb-15 09:30N 45°33' W 001°04'0 0.0
2018-Feb-13 14:58N 45°33' W 001°04'0 0.0
2018-Feb-13 14:16N 45°33' W 001°04'0 0.0
2018-Feb-13 13:46N 45°33' W 001°04'0 0.0
2018-Feb-11 16:20N 45°33' W 001°04'0 0.0
2018-Feb-11 15:56N 45°33' W 001°04'0 0.0
2018-Feb-11 15:29N 45°33' W 001°04'0 0.0
2018-Feb-11 14:56N 45°33' W 001°04'0 0.0
2018-Feb-11 14:29N 45°33' W 001°04'1 1.8
2018-Feb-11 14:00N 45°34' W 001°03'3 6.0
2018-Feb-11 13:27N 45°37' W 001°04'1 2.1
2018-Feb-11 12:59N 45°36' W 001°03'1 2.6
2018-Feb-11 12:27N 45°35' W 001°03'0 0.9
2018-Feb-11 12:00N 45°35' W 001°03'1 1.1
2018-Feb-11 11:25N 45°35' W 001°02'1 2.1
2018-Feb-11 10:52N 45°34' W 001°03'1 1.3
2018-Feb-11 10:09N 45°33' W 001°04'0 0.0
2018-Feb-11 09:51N 45°33' W 001°04'  
Track history (hours):
 
Tides and Currents Weather Stations Pressure Air Temp Water Temp Dewpoint Dewpoint Depression Visibility Wind Speed Wind Dir Waves Ship Positions

Five

Last reported at 2018-Feb-17 15:56 UTC. Time now 2018-Feb-20 23:55 UTC.
Position N 45°35' W 001°01'.

Length 15 m.

Type: Pleasure craft. MMSI: 235108572.

Date/timePositionNaut miles runAvg speedWind from/ knotsBaromVisibWave heightAir tempDewpointWater temp
2018-Feb-17 15:56N 45°35' W 001°01'1 3.1
2018-Feb-17 15:30N 45°34' W 001°01'1 2.2
2018-Feb-17 15:00N 45°33' W 001°02'2 3.4
2018-Feb-17 14:30N 45°34' W 001°01'1 2.3
2018-Feb-17 14:00N 45°35' W 001°02'2 4.1
2018-Feb-17 13:30N 45°37' W 001°03'1 2.4
2018-Feb-17 12:56N 45°35' W 001°03'2 2.3
2018-Feb-17 12:10N 45°33' W 001°04'0 0.0
2018-Feb-15 16:08N 45°33' W 001°04'0 0.0
2018-Feb-15 15:56N 45°33' W 001°04'0 0.0
2018-Feb-15 15:26N 45°33' W 001°04'1 1.4
2018-Feb-15 14:55N 45°33' W 001°03'1 2.9
2018-Feb-15 14:28N 45°35' W 001°03'1 1.8
2018-Feb-15 14:00N 45°35' W 001°02'2 3.4
2018-Feb-15 13:28N 45°33' W 000°60'2 4.2
2018-Feb-15 12:59N 45°35' W 001°02'2 4.4
2018-Feb-15 12:30N 45°34' W 000°60'1 3.0
2018-Feb-15 12:00N 45°34' W 001°01'1 2.0
2018-Feb-15 11:29N 45°33' W 001°01'1 2.5
2018-Feb-15 11:00N 45°34' W 001°03'1 0.8
2018-Feb-15 10:06N 45°33' W 001°04'0 0.0
2018-Feb-15 09:48N 45°33' W 001°04'0 0.0
2018-Feb-15 09:30N 45°33' W 001°04'0 0.0
2018-Feb-13 14:58N 45°33' W 001°04'0 0.0
2018-Feb-13 14:16N 45°33' W 001°04'0 0.0
2018-Feb-13 13:46N 45°33' W 001°04'0 0.0
2018-Feb-11 16:20N 45°33' W 001°04'0 0.0
2018-Feb-11 15:56N 45°33' W 001°04'0 0.0
2018-Feb-11 15:29N 45°33' W 001°04'0 0.0
2018-Feb-11 14:56N 45°33' W 001°04'0 0.0
2018-Feb-11 14:29N 45°33' W 001°04'1 1.8
2018-Feb-11 14:00N 45°34' W 001°03'3 6.0
2018-Feb-11 13:27N 45°37' W 001°04'1 2.1
2018-Feb-11 12:59N 45°36' W 001°03'1 2.6
2018-Feb-11 12:27N 45°35' W 001°03'0 0.9
2018-Feb-11 12:00N 45°35' W 001°03'1 1.1
2018-Feb-11 11:25N 45°35' W 001°02'1 2.1
2018-Feb-11 10:52N 45°34' W 001°03'1 1.3
2018-Feb-11 10:09N 45°33' W 001°04'0 0.0
2018-Feb-11 09:51N 45°33' W 001°04'  

Dump ship's entire track history